createdAt,value
2019-04-20T00:00:51.545Z,12.00
2019-04-20T00:03:19.129Z,12.30
2019-04-20T00:05:49.142Z,13.93
2019-04-20T00:08:23.211Z,12.60
2019-04-20T00:10:58.296Z,12.00
2019-04-20T00:13:33.314Z,13.80
2019-04-20T00:15:53.731Z,14.10
2019-04-20T00:18:28.046Z,12.37
2019-04-20T00:21:16.453Z,13.93
2019-04-20T00:23:49.758Z,12.10
2019-04-20T00:27:04.688Z,11.60
2019-04-20T00:29:23.943Z,12.63
2019-04-20T00:31:51.435Z,12.97
2019-04-20T00:34:16.988Z,10.83
2019-04-20T00:36:39.394Z,11.47
2019-04-20T00:39:13.261Z,12.57
2019-04-20T00:41:49.026Z,11.73
2019-04-20T00:44:21.951Z,11.10
2019-04-20T00:46:58.568Z,11.30
2019-04-20T00:49:30.680Z,14.03
2019-04-20T00:52:18.719Z,11.47
2019-04-20T00:54:20.129Z,12.27
2019-04-20T00:56:50.114Z,13.57
2019-04-20T00:59:31.748Z,12.43
2019-04-20T01:02:10.808Z,12.00
2019-04-20T01:04:40.898Z,12.40
2019-04-20T01:07:20.586Z,12.43
2019-04-20T01:10:09.136Z,12.80
2019-04-20T01:12:42.071Z,11.43
2019-04-20T01:15:16.641Z,11.67
2019-04-20T01:17:43.107Z,12.30
2019-04-20T01:20:13.089Z,12.40
2019-04-20T01:22:51.502Z,13.03
2019-04-20T01:25:23.093Z,13.10
2019-04-20T01:28:05.472Z,11.10
2019-04-20T01:30:24.942Z,13.40
2019-04-20T01:33:04.863Z,12.03
2019-04-20T01:35:40.820Z,12.33
2019-04-20T01:38:12.552Z,12.47
2019-04-20T01:40:25.274Z,13.03
2019-04-20T01:42:55.816Z,12.83
2019-04-20T01:45:32.429Z,12.13
2019-04-20T01:47:59.566Z,13.27
2019-04-20T01:50:33.704Z,11.07
2019-04-20T01:53:12.428Z,11.73
2019-04-20T01:56:04.799Z,13.57
2019-04-20T01:58:30.198Z,11.50
2019-04-20T02:01:19.460Z,13.77
2019-04-20T02:03:56.792Z,12.17
2019-04-20T02:06:26.912Z,10.33
2019-04-20T02:09:00.323Z,11.27
2019-04-20T02:11:34.527Z,12.03
2019-04-20T02:14:04.868Z,11.00
2019-04-20T02:16:37.332Z,13.07
2019-04-20T02:19:19.569Z,10.73
2019-04-20T02:21:51.661Z,10.60
2019-04-20T02:24:10.524Z,12.20
2019-04-20T02:26:38.874Z,11.63
2019-04-20T02:29:30.517Z,12.67
2019-04-20T02:32:18.134Z,12.13
2019-04-20T02:40:43.042Z,10.43
2019-04-20T03:00:29.874Z,11.23
2019-04-20T03:02:53.680Z,9.33
2019-04-20T03:05:25.745Z,11.53
2019-04-20T03:08:02.810Z,12.77
2019-04-20T03:10:43.288Z,13.33
2019-04-20T03:13:08.050Z,9.90
2019-04-20T03:15:37.651Z,10.50
2019-04-20T03:18:08.840Z,10.20
2019-04-20T03:20:43.523Z,10.50
2019-04-20T03:23:23.491Z,9.67
2019-04-20T03:26:01.256Z,9.43
2019-04-20T03:28:42.980Z,9.87
2019-04-20T03:31:41.035Z,9.33
2019-04-20T03:34:32.055Z,9.03
2019-04-20T03:36:39.412Z,10.80
2019-04-20T03:38:57.378Z,10.07
2019-04-20T03:41:19.609Z,8.77
2019-04-20T03:43:41.701Z,9.53
2019-04-20T03:46:15.997Z,9.57
2019-04-20T03:48:59.759Z,8.60
2019-04-20T03:51:45.562Z,10.67
2019-04-20T03:54:25.166Z,9.13
2019-04-20T03:57:38.257Z,10.97
2019-04-20T04:00:17.169Z,8.70
2019-04-20T04:03:12.851Z,10.30
2019-04-20T04:05:38.189Z,8.70
2019-04-20T04:08:07.617Z,8.50
2019-04-20T04:10:47.180Z,8.90
2019-04-20T04:13:10.052Z,9.97
2019-04-20T04:15:46.767Z,8.07
2019-04-20T04:18:23.037Z,9.13
2019-04-20T04:20:52.124Z,9.17
2019-04-20T04:23:35.744Z,10.63
2019-04-20T04:26:21.949Z,8.63
2019-04-20T04:28:39.699Z,9.30
2019-04-20T04:31:12.002Z,8.47
2019-04-20T04:36:10.496Z,10.00
2019-04-20T04:38:51.365Z,8.70
2019-04-20T04:43:49.717Z,9.70
2019-04-20T04:46:01.685Z,8.93
2019-04-20T04:48:37.052Z,8.60
2019-04-20T04:51:13.961Z,7.97
2019-04-20T04:53:47.585Z,9.63
2019-04-20T04:56:14.415Z,8.63
2019-04-20T04:58:40.490Z,8.77
2019-04-20T05:01:17.876Z,10.23
2019-04-20T05:04:11.584Z,8.27
2019-04-20T05:06:38.713Z,9.80
2019-04-20T05:09:00.385Z,8.53
2019-04-20T05:11:27.930Z,8.43
2019-04-20T05:14:03.603Z,8.40
2019-04-20T05:16:52.042Z,9.43
2019-04-20T05:19:24.755Z,8.53
2019-04-20T05:22:09.713Z,7.60
2019-04-20T05:24:48.453Z,10.63
2019-04-20T05:27:50.894Z,8.30
2019-04-20T05:30:05.730Z,8.80
2019-04-20T05:32:48.277Z,8.97
2019-04-20T05:35:40.734Z,10.10
2019-04-20T05:38:07.681Z,9.37
2019-04-20T05:40:32.608Z,7.20
2019-04-20T05:43:13.144Z,8.73
2019-04-20T05:45:40.283Z,8.33
2019-04-20T05:48:11.905Z,7.97
2019-04-20T05:50:46.859Z,9.13
2019-04-20T05:53:24.597Z,8.43
2019-04-20T05:55:51.083Z,7.47
2019-04-20T05:58:23.355Z,7.27
2019-04-20T06:00:57.495Z,8.67
2019-04-20T06:03:20.285Z,7.77
2019-04-20T06:06:03.233Z,7.73
2019-04-20T06:08:39.063Z,7.67
2019-04-20T06:11:04.154Z,8.30
2019-04-20T06:13:32.644Z,8.03
2019-04-20T06:16:15.734Z,8.17
2019-04-20T06:18:58.416Z,9.17
2019-04-20T06:21:38.010Z,9.50
2019-04-20T06:24:22.386Z,8.77
2019-04-20T06:29:18.310Z,11.67
2019-04-20T06:32:00.665Z,15.63
2019-04-20T06:34:45.041Z,10.03
2019-04-20T06:37:06.746Z,10.93
2019-04-20T06:44:41.537Z,7.90
2019-04-20T06:47:24.899Z,7.73
2019-04-20T06:49:56.468Z,12.30
2019-04-20T06:52:43.880Z,10.70
2019-04-20T06:55:20.026Z,7.83
2019-04-20T06:57:50.742Z,9.53
2019-04-20T07:00:44.489Z,9.57
2019-04-20T07:02:53.839Z,9.57
2019-04-20T07:05:31.606Z,7.87
2019-04-20T07:08:15.518Z,7.00
2019-04-20T07:10:40.761Z,6.77
2019-04-20T07:13:02.711Z,8.00
2019-04-20T07:15:46.550Z,6.70
2019-04-20T07:18:26.171Z,7.80
2019-04-20T07:21:04.285Z,8.13
2019-04-20T07:23:31.187Z,7.70
2019-04-20T07:26:12.748Z,5.00
2019-04-20T07:28:40.843Z,6.67
2019-04-20T07:31:11.321Z,14.83
2019-04-20T07:33:44.609Z,6.47
2019-04-20T07:36:19.885Z,7.13
2019-04-20T07:38:47.618Z,7.97
2019-04-20T07:41:21.577Z,7.43
2019-04-20T07:43:57.468Z,9.40
2019-04-20T07:46:35.198Z,7.03
2019-04-20T07:48:48.931Z,9.60
2019-04-20T07:51:09.354Z,13.03
2019-04-20T07:53:50.260Z,10.57
2019-04-20T07:56:28.357Z,9.93
2019-04-20T07:58:45.504Z,13.57
2019-04-20T08:01:38.738Z,11.43
2019-04-20T08:04:08.064Z,14.30
2019-04-20T08:06:37.949Z,20.87
2019-04-20T08:09:15.811Z,17.63
2019-04-20T08:11:54.947Z,24.87
2019-04-20T08:14:34.562Z,23.17
2019-04-20T08:17:14.096Z,25.10
2019-04-20T08:19:29.740Z,21.63
2019-04-20T08:21:58.706Z,34.60
2019-04-20T08:24:27.907Z,33.93
2019-04-20T08:26:53.080Z,38.73
2019-04-20T08:29:37.920Z,33.77
2019-04-20T08:32:26.518Z,25.57
2019-04-20T08:34:54.733Z,35.87
2019-04-20T08:37:22.301Z,28.80
2019-04-20T08:40:04.819Z,19.67
2019-04-20T08:42:31.274Z,26.17
2019-04-20T08:45:11.222Z,26.17
2019-04-20T08:47:57.021Z,26.00
2019-04-20T08:50:23.706Z,25.30
2019-04-20T08:55:24.002Z,29.60
2019-04-20T08:57:37.899Z,18.63
2019-04-20T09:00:09.400Z,26.23
2019-04-20T09:02:41.314Z,29.07
2019-04-20T09:05:28.540Z,29.03
2019-04-20T09:07:54.151Z,26.60
2019-04-20T09:10:39.432Z,24.80
2019-04-20T09:13:02.589Z,22.47
2019-04-20T09:15:19.048Z,17.93
2019-04-20T09:18:09.295Z,19.47
2019-04-20T09:20:46.236Z,20.77
2019-04-20T09:23:23.843Z,24.67
2019-04-20T09:28:39.618Z,22.80
2019-04-20T09:31:20.167Z,23.70
2019-04-20T09:34:08.339Z,26.60
2019-04-20T09:36:44.609Z,23.60
2019-04-20T09:39:30.318Z,29.30
2019-04-20T09:42:24.268Z,25.63
2019-04-20T09:44:58.983Z,19.37
2019-04-20T09:47:32.651Z,24.10
2019-04-20T09:50:09.344Z,27.40
2019-04-20T09:52:49.071Z,29.93
2019-04-20T09:55:16.369Z,28.57
2019-04-20T09:57:54.405Z,25.50
2019-04-20T10:00:25.779Z,28.07
2019-04-20T10:02:39.455Z,28.93
2019-04-20T10:05:09.723Z,31.13
2019-04-20T10:07:40.970Z,25.10
2019-04-20T10:10:22.674Z,22.33
2019-04-20T10:12:44.000Z,24.90
2019-04-20T10:15:19.481Z,19.00
2019-04-20T10:17:45.783Z,22.77
2019-04-20T10:20:24.428Z,31.60
2019-04-20T10:22:48.758Z,26.57
2019-04-20T10:25:20.564Z,33.27
2019-04-20T10:27:51.543Z,24.80
2019-04-20T10:30:22.741Z,23.67
2019-04-20T10:32:54.165Z,20.30
2019-04-20T10:35:25.533Z,24.73
2019-04-20T10:38:00.658Z,29.00
2019-04-20T10:40:43.251Z,24.33
2019-04-20T10:43:04.535Z,22.43
2019-04-20T10:45:35.050Z,28.03
2019-04-20T10:48:05.450Z,19.73
2019-04-20T10:50:36.539Z,15.37
2019-04-20T10:53:07.953Z,24.87
2019-04-20T10:55:39.723Z,25.57
2019-04-20T10:58:09.826Z,22.67
2019-04-20T11:00:41.958Z,18.07
2019-04-20T11:03:13.557Z,24.50
2019-04-20T11:05:44.740Z,19.63
2019-04-20T11:08:14.914Z,17.63
2019-04-20T11:10:55.649Z,27.23
2019-04-20T11:13:17.348Z,17.73
2019-04-20T11:15:48.421Z,21.43
2019-04-20T11:18:19.623Z,16.00
2019-04-20T11:20:49.619Z,20.27
2019-04-20T11:23:20.328Z,20.13
2019-04-20T11:25:50.569Z,18.27
2019-04-20T11:28:21.906Z,21.60
2019-04-20T11:30:52.142Z,20.03
2019-04-20T11:33:22.348Z,19.03
2019-04-20T11:35:52.317Z,18.37
2019-04-20T11:38:22.243Z,17.10
2019-04-20T11:41:04.182Z,17.50
2019-04-20T11:43:25.970Z,20.93
2019-04-20T11:45:56.521Z,15.37
2019-04-20T11:48:27.459Z,18.90
2019-04-20T11:50:57.903Z,17.47
2019-04-20T11:53:28.587Z,13.40
2019-04-20T11:56:00.333Z,19.10
2019-04-20T11:58:30.458Z,17.17
2019-04-20T12:01:11.070Z,18.97
2019-04-20T12:03:46.895Z,24.20
2019-04-20T12:06:08.664Z,20.67
2019-04-20T12:08:40.647Z,20.13
2019-04-20T12:11:27.791Z,19.00
2019-04-20T12:13:44.879Z,12.73
2019-04-20T12:16:15.117Z,15.53
2019-04-20T12:18:46.371Z,14.10
2019-04-20T12:21:16.856Z,12.47
2019-04-20T12:23:48.681Z,14.60
2019-04-20T12:26:18.580Z,35.43
2019-04-20T12:28:49.710Z,35.57
2019-04-20T12:31:23.689Z,30.20
2019-04-20T12:33:52.516Z,24.93
2019-04-20T12:36:23.863Z,24.13
2019-04-20T12:38:55.022Z,27.13
2019-04-20T12:41:36.648Z,25.33
2019-04-20T12:43:56.863Z,23.30
2019-04-20T12:46:28.040Z,22.30
2019-04-20T12:48:58.157Z,15.37
2019-04-20T12:51:33.533Z,13.93
2019-04-20T12:54:00.535Z,14.37
2019-04-20T12:56:30.730Z,15.60
2019-04-20T12:59:03.230Z,21.00
2019-04-20T13:01:33.249Z,19.20
2019-04-20T13:04:07.364Z,16.47
2019-04-20T13:06:38.661Z,17.00
2019-04-20T13:09:10.882Z,18.67
2019-04-20T13:12:06.406Z,14.37
2019-04-20T13:15:31.962Z,12.03
2019-04-20T13:18:03.283Z,17.73
2019-04-20T13:20:34.114Z,10.73
2019-04-20T13:23:06.199Z,10.03
2019-04-20T13:25:37.031Z,11.13
2019-04-20T13:28:07.319Z,10.77
2019-04-20T13:30:37.659Z,11.83
2019-04-20T13:33:07.983Z,12.67
2019-04-20T13:35:40.238Z,11.30
2019-04-20T13:38:10.379Z,9.70
2019-04-20T13:40:41.703Z,12.60
2019-04-20T13:43:12.037Z,13.30
2019-04-20T13:45:42.647Z,15.70
2019-04-20T13:48:12.928Z,11.20
2019-04-20T13:50:44.170Z,20.20
2019-04-20T13:53:14.952Z,18.27
2019-04-20T13:55:45.710Z,9.60
2019-04-20T13:58:33.879Z,14.83
2019-04-20T14:01:22.647Z,13.10
2019-04-20T14:04:20.997Z,9.90
2019-04-20T14:06:51.591Z,15.03
2019-04-20T14:09:21.508Z,11.37
2019-04-20T14:11:51.758Z,7.17
2019-04-20T14:14:23.319Z,14.83
2019-04-20T14:16:54.569Z,10.33
2019-04-20T14:19:27.197Z,10.73
2019-04-20T14:21:57.305Z,9.40
2019-04-20T14:24:27.261Z,11.40
2019-04-20T14:26:57.223Z,12.97
2019-04-20T14:29:27.782Z,14.87
2019-04-20T14:32:00.586Z,21.63
2019-04-20T14:34:29.476Z,20.93
2019-04-20T14:37:00.387Z,15.50
2019-04-20T14:39:30.360Z,26.83
2019-04-20T14:42:00.546Z,15.43
2019-04-20T14:44:31.793Z,35.27
2019-04-20T14:47:03.720Z,23.33
2019-04-20T14:49:34.762Z,16.73
2019-04-20T14:52:06.191Z,34.53
2019-04-20T14:54:37.313Z,20.10
2019-04-20T14:57:09.659Z,24.77
2019-04-20T14:59:53.810Z,16.97
2019-04-20T15:02:27.921Z,20.03
2019-04-20T15:04:59.057Z,18.03
2019-04-20T15:07:29.169Z,18.37
2019-04-20T15:10:03.095Z,11.43
2019-04-20T15:12:44.551Z,14.47
2019-04-20T15:15:05.857Z,14.37
2019-04-20T15:17:45.710Z,21.33
2019-04-20T15:20:27.643Z,21.87
2019-04-20T15:22:59.714Z,18.33
2019-04-20T15:25:29.728Z,16.50
2019-04-20T15:28:00.564Z,22.70
2019-04-20T15:30:31.942Z,24.77
2019-04-20T15:33:05.061Z,29.03
2019-04-20T15:35:35.439Z,22.30
2019-04-20T15:38:05.437Z,15.67
2019-04-20T15:40:35.359Z,21.00
2019-04-20T15:43:13.327Z,18.73
2019-04-20T15:45:37.101Z,21.37
2019-04-20T15:48:07.954Z,17.33
2019-04-20T15:50:38.213Z,13.43
2019-04-20T15:53:08.174Z,13.90
2019-04-20T15:55:41.256Z,21.60
2019-04-20T15:58:10.239Z,18.50
2019-04-20T16:00:40.546Z,23.97
2019-04-20T16:03:21.137Z,14.87
2019-04-20T16:06:05.408Z,20.07
2019-04-20T16:08:39.427Z,20.00
2019-04-20T16:11:09.384Z,20.33
2019-04-20T16:13:44.144Z,14.47
2019-04-20T16:16:12.159Z,20.93
2019-04-20T16:18:43.211Z,18.07
2019-04-20T16:21:19.897Z,20.80
2019-04-20T16:23:52.941Z,20.70
2019-04-20T16:26:35.594Z,24.03
2019-04-20T16:29:06.058Z,21.13
2019-04-20T16:31:36.348Z,20.73
2019-04-20T16:34:07.463Z,19.27
2019-04-20T16:36:38.854Z,21.60
2019-04-20T16:39:09.669Z,26.63
2019-04-20T16:41:42.432Z,29.53
2019-04-20T16:44:13.412Z,22.20
2019-04-20T16:46:43.398Z,26.47
2019-04-20T16:49:13.364Z,32.20
2019-04-20T16:51:43.217Z,20.30
2019-04-20T16:54:13.957Z,21.67
2019-04-20T16:56:44.568Z,17.17
2019-04-20T16:59:17.305Z,22.20
2019-04-20T17:01:48.425Z,28.93
2019-04-20T17:04:22.383Z,17.67
2019-04-20T17:07:10.437Z,16.90
2019-04-20T17:09:41.935Z,16.23
2019-04-20T17:12:12.188Z,17.03
2019-04-20T17:14:43.250Z,21.17
2019-04-20T17:17:13.497Z,15.40
2019-04-20T17:19:43.917Z,18.47
2019-04-20T17:22:14.019Z,18.23
2019-04-20T17:24:47.277Z,20.53
2019-04-20T17:27:49.115Z,19.43
2019-04-20T17:30:55.172Z,16.17
2019-04-20T17:33:47.359Z,16.20
2019-04-20T17:36:12.405Z,19.17
2019-04-20T17:38:44.573Z,20.53
2019-04-20T17:41:31.039Z,15.40
2019-04-20T17:44:11.696Z,15.23
2019-04-20T17:46:39.411Z,22.10
2019-04-20T17:49:14.162Z,15.70
2019-04-20T17:51:55.564Z,16.13
2019-04-20T17:54:22.046Z,15.57
2019-04-20T17:56:52.533Z,14.70
2019-04-20T17:59:22.476Z,11.23
2019-04-20T18:02:20.358Z,14.60
2019-04-20T18:05:06.575Z,17.97
2019-04-20T18:07:40.748Z,14.50
2019-04-20T18:10:09.778Z,13.93
2019-04-20T18:12:26.742Z,14.43
2019-04-20T18:15:06.200Z,14.83
2019-04-20T18:17:54.694Z,16.93
2019-04-20T18:20:30.422Z,19.83
2019-04-20T18:23:00.616Z,16.10
2019-04-20T18:25:58.898Z,17.10
2019-04-20T18:28:15.173Z,13.27
2019-04-20T18:30:53.629Z,9.60
2019-04-20T18:33:25.137Z,16.47
2019-04-20T18:35:52.190Z,11.43
2019-04-20T18:38:22.329Z,13.70
2019-04-20T18:40:58.863Z,14.83
2019-04-20T18:43:27.098Z,9.23
2019-04-20T18:46:12.443Z,15.60
2019-04-20T18:48:48.416Z,19.80
2019-04-20T18:51:01.793Z,16.67
2019-04-20T18:53:38.754Z,11.70
2019-04-20T18:56:04.708Z,12.40
2019-04-20T18:58:35.351Z,13.47
2019-04-20T19:01:05.463Z,13.47
2019-04-20T19:03:41.849Z,11.13
2019-04-20T19:06:08.710Z,15.00
2019-04-20T19:08:46.361Z,13.57
2019-04-20T19:11:15.293Z,9.83
2019-04-20T19:13:49.425Z,20.33
2019-04-20T19:16:49.498Z,13.60
2019-04-20T19:19:33.403Z,15.53
2019-04-20T19:21:56.195Z,13.00
2019-04-20T19:24:29.296Z,14.77
2019-04-20T19:27:03.573Z,19.33
2019-04-20T19:29:35.249Z,20.73
2019-04-20T19:32:21.111Z,16.33
2019-04-20T19:34:47.459Z,15.83
2019-04-20T19:37:17.729Z,16.40
2019-04-20T19:39:49.388Z,12.40
2019-04-20T19:42:27.653Z,14.53
2019-04-20T19:44:53.805Z,17.43
2019-04-20T19:47:32.534Z,30.27
2019-04-20T19:50:07.236Z,19.83
2019-04-20T19:53:02.171Z,18.17
2019-04-20T19:55:06.654Z,18.53
2019-04-20T19:57:41.284Z,15.93
2019-04-20T19:59:54.237Z,15.87
2019-04-20T20:02:23.603Z,25.03
2019-04-20T20:04:59.229Z,22.33
2019-04-20T20:07:31.023Z,15.43
2019-04-20T20:10:01.501Z,18.50
2019-04-20T20:12:29.544Z,18.27
2019-04-20T20:14:59.703Z,17.47
2019-04-20T20:17:51.326Z,16.73
2019-04-20T20:20:26.311Z,15.80
2019-04-20T20:22:50.343Z,17.73
2019-04-20T20:25:22.612Z,15.00
2019-04-20T20:27:57.512Z,19.33
2019-04-20T20:30:30.654Z,20.93
2019-04-20T20:33:11.614Z,20.33
2019-04-20T20:35:30.770Z,17.23
2019-04-20T20:38:01.167Z,20.97
2019-04-20T20:40:36.421Z,15.40
2019-04-20T20:43:11.098Z,18.00
2019-04-20T20:45:39.659Z,18.83
2019-04-20T20:48:20.652Z,16.00
2019-04-20T20:50:54.627Z,13.57
2019-04-20T20:53:16.495Z,14.70
2019-04-20T20:55:44.664Z,22.17
2019-04-20T20:58:18.172Z,14.07
2019-04-20T21:00:54.075Z,12.40
2019-04-20T21:03:22.173Z,14.40
2019-04-20T21:05:47.865Z,11.23
2019-04-20T21:08:17.794Z,12.73
2019-04-20T21:10:48.105Z,12.10
2019-04-20T21:13:19.457Z,12.93
2019-04-20T21:15:57.685Z,14.27
2019-04-20T21:18:43.657Z,11.80
2019-04-20T21:21:08.879Z,11.07
2019-04-20T21:23:40.760Z,13.60
2019-04-20T21:26:11.486Z,12.37
2019-04-20T21:28:41.696Z,11.50
2019-04-20T21:31:16.808Z,14.27
2019-04-20T21:33:44.818Z,13.93
2019-04-20T21:36:20.078Z,10.60
2019-04-20T21:38:53.960Z,10.13
2019-04-20T21:41:25.652Z,15.70
2019-04-20T21:43:55.989Z,12.80
2019-04-20T21:46:31.907Z,10.13
2019-04-20T21:49:09.696Z,10.37
2019-04-20T21:51:40.876Z,10.07
2019-04-20T21:54:02.057Z,12.33
2019-04-20T21:56:33.550Z,14.20
2019-04-20T21:59:06.551Z,14.30
2019-04-20T22:01:39.802Z,9.40
2019-04-20T22:04:08.265Z,9.37
2019-04-20T22:06:38.370Z,10.20
2019-04-20T22:09:12.683Z,11.93
2019-04-20T22:11:44.329Z,8.73
2019-04-20T22:14:18.897Z,12.70
2019-04-20T22:16:49.607Z,10.33
2019-04-20T22:19:30.660Z,9.03
2019-04-20T22:22:00.629Z,10.73
2019-04-20T22:24:39.952Z,11.57
2019-04-20T22:27:03.113Z,10.00
2019-04-20T22:29:24.020Z,10.93
2019-04-20T22:32:02.690Z,9.53
2019-04-20T22:34:28.099Z,11.47
2019-04-20T22:36:58.038Z,10.67
2019-04-20T22:39:39.295Z,12.80
2019-04-20T22:42:07.395Z,12.23
2019-04-20T22:44:36.185Z,12.23
2019-04-20T22:47:14.028Z,10.63
2019-04-20T22:49:52.807Z,11.20
2019-04-20T22:52:26.230Z,11.13
2019-04-20T22:54:55.216Z,10.17
2019-04-20T22:57:32.009Z,11.40
2019-04-20T22:59:53.879Z,11.23
2019-04-20T23:02:36.621Z,10.97
2019-04-20T23:05:06.850Z,10.37
2019-04-20T23:07:36.964Z,9.50
2019-04-20T23:10:08.828Z,10.20
2019-04-20T23:12:40.221Z,11.63
2019-04-20T23:15:12.164Z,11.77
2019-04-20T23:17:45.398Z,10.63
2019-04-20T23:20:22.947Z,12.50
2019-04-20T23:22:47.729Z,9.57
2019-04-20T23:25:17.466Z,10.93
2019-04-20T23:27:51.199Z,9.93
2019-04-20T23:30:25.045Z,9.70
2019-04-20T23:32:51.753Z,10.03
2019-04-20T23:35:24.584Z,10.20
2019-04-20T23:38:01.235Z,10.27
2019-04-20T23:40:26.063Z,12.03
2019-04-20T23:43:25.403Z,10.27
2019-04-20T23:46:20.725Z,9.77
2019-04-20T23:49:12.371Z,9.37
2019-04-20T23:52:00.697Z,9.53
2019-04-20T23:54:15.817Z,10.87
2019-04-20T23:56:41.558Z,10.57
2019-04-20T23:59:12.734Z,9.97
